Santa Barbara, Brazil
Current Conditions -  °F | °C
As of 7:00 PM on Wednesday 22 Oct 2014 (Local Time) from SBSV Reporting Station
Scattered Clouds Scattered Clouds  
Wind Chill: 77°   Ceiling: Unl
Heat Index: 79°   Visibility: 6mi
Dew Point: 63°   Wind: 10mph
Humidity: 61%   Direction: 160°SSE
Pressure: 30"   Gusts: NA
Location:  11.96°S, 38.97°W
Report Text: SBSV 222200Z 16009KT 9999 SCT017 25/17 Q1016
Loading
Personal Weather Stations






























Interactive Weather Map
Tropical Storm Tracking
New forecast layout! Learn more

10-Day Weather Forecast

Advertisements
Track Severe Weather on mobile